Time;durP1;ratioP1;P1;durP2;ratioP2;P2;SDS_P1;SDS_P2;PMS_P1;PMS_P2;Temp;Humidity;BMP_temperature;BMP_pressure;BME280_temperature;BME280_humidity;BME280_pressure;Samples;Min_cycle;Max_cycle;Signal;HPM_P1;HPM_P2
2023/07/26 00:00:27;;;;;;;7.47;4.10;;;;;;;14.00;99.44;101108.47;5044211;28;20056;-72
2023/07/26 00:02:52;;;;;;;5.85;4.03;;;;;;;14.02;99.28;101112.75;5038508;28;20029;-72
2023/07/26 00:05:18;;;;;;;5.00;3.90;;;;;;;14.05;100.00;101119.66;5037146;28;20025;-72
2023/07/26 00:07:43;;;;;;;6.07;3.90;;;;;;;14.03;98.69;101113.63;5031730;28;20018;-72
2023/07/26 00:10:09;;;;;;;6.18;3.55;;;;;;;14.04;99.72;101113.56;5039115;28;20492;-72
2023/07/26 00:12:34;;;;;;;4.65;4.00;;;;;;;14.01;99.92;101110.19;5043947;28;20048;-72
2023/07/26 00:15:00;;;;;;;6.22;4.20;;;;;;;14.00;100.00;101111.97;5039446;28;20067;-72
2023/07/26 00:17:25;;;;;;;6.05;4.07;;;;;;;13.99;100.00;101109.38;5039365;28;20123;-73
2023/07/26 00:19:50;;;;;;;6.80;3.95;;;;;;;13.95;100.00;101108.63;5043289;28;20346;-73
2023/07/26 00:22:16;;;;;;;5.55;4.07;;;;;;;13.88;100.00;101093.16;5041485;28;20025;-72
2023/07/26 00:24:41;;;;;;;8.68;4.47;;;;;;;13.90;100.00;101112.31;5043304;28;20075;-73
2023/07/26 00:27:06;;;;;;;6.82;4.05;;;;;;;13.92;100.00;101115.72;5042212;28;20086;-72
2023/07/26 00:29:31;;;;;;;5.32;4.38;;;;;;;13.92;100.00;101107.88;5043720;28;20037;-72
2023/07/26 00:31:57;;;;;;;5.40;4.10;;;;;;;13.84;100.00;101107.28;5043655;28;20025;-72
2023/07/26 00:34:22;;;;;;;9.15;4.32;;;;;;;13.83;100.00;101106.41;5041329;28;20046;-72
2023/07/26 00:36:47;;;;;;;6.90;4.45;;;;;;;13.83;100.00;101109.00;5043053;28;20441;-72
2023/07/26 00:39:13;;;;;;;5.50;4.50;;;;;;;13.81;100.00;101106.47;5044141;28;20035;-73
2023/07/26 00:41:39;;;;;;;5.05;4.47;;;;;;;13.79;100.00;101102.16;5040105;28;20378;-72
2023/07/26 00:44:04;;;;;;;5.57;4.43;;;;;;;13.75;100.00;101096.19;5047083;28;20057;-72
2023/07/26 00:46:30;;;;;;;7.30;4.93;;;;;;;13.76;100.00;101104.88;5042169;28;20025;-72
2023/07/26 00:48:57;;;;;;;5.90;4.60;;;;;;;13.75;100.00;101111.91;5051060;28;20040;-72
2023/07/26 00:51:23;;;;;;;5.63;3.83;;;;;;;13.76;100.00;101115.38;5043633;28;20108;-72
2023/07/26 00:53:49;;;;;;;6.18;4.60;;;;;;;13.76;100.00;101110.97;5051418;28;20041;-72
2023/07/26 00:56:15;;;;;;;6.03;4.43;;;;;;;13.75;100.00;101106.66;5043608;28;20036;-73
2023/07/26 00:58:40;;;;;;;6.18;4.63;;;;;;;13.74;100.00;101107.56;5050490;28;20477;-73
2023/07/26 01:01:06;;;;;;;4.88;4.38;;;;;;;13.73;100.00;101108.50;5045063;28;20031;-72
2023/07/26 01:03:31;;;;;;;6.35;5.03;;;;;;;13.63;100.00;101099.19;5041959;28;20031;-72
2023/07/26 01:06:31;;;;;;;5.38;4.70;;;;;;;13.69;100.00;101109.47;5047447;28;20112;-73
2023/07/26 01:09:27;;;;;;;6.95;4.97;;;;;;;13.62;100.00;101102.72;5031150;28;20123;-72
2023/07/26 01:12:05;;;;;;;6.40;4.72;;;;;;;13.51;100.00;101110.94;5043178;28;20044;-73
2023/07/26 01:14:45;;;;;;;7.50;5.00;;;;;;;13.44;100.00;101114.66;5031600;28;20025;-73
2023/07/26 01:17:10;;;;;;;6.07;4.80;;;;;;;13.32;100.00;101118.47;5044378;28;20061;-73
2023/07/26 01:19:36;;;;;;;6.25;5.10;;;;;;;13.27;100.00;101112.50;5043294;28;20048;-73
2023/07/26 01:22:01;;;;;;;6.55;4.90;;;;;;;13.19;100.00;101109.25;5043243;28;20084;-73
2023/07/26 01:24:27;;;;;;;7.43;5.32;;;;;;;13.16;100.00;101113.72;5044451;28;20030;-73
2023/07/26 01:26:52;;;;;;;6.93;5.07;;;;;;;13.04;100.00;101112.31;5048441;28;20028;-72
2023/07/26 01:29:17;;;;;;;7.32;5.60;;;;;;;13.00;100.00;101123.78;5043392;28;20473;-73
2023/07/26 01:31:43;;;;;;;6.43;5.28;;;;;;;12.88;100.00;101110.16;5049667;28;20052;-72
2023/07/26 01:34:09;;;;;;;6.00;5.40;;;;;;;12.84;100.00;101115.50;5043103;28;20057;-73
2023/07/26 01:36:35;;;;;;;7.05;5.20;;;;;;;12.75;100.00;101106.19;5048662;28;20033;-72
2023/07/26 01:39:03;;;;;;;5.82;4.93;;;;;;;12.73;100.00;101113.22;5045723;28;20041;-72
2023/07/26 01:41:29;;;;;;;6.22;5.47;;;;;;;12.72;100.00;101106.28;5049673;28;20033;-72
2023/07/26 01:43:55;;;;;;;6.53;5.20;;;;;;;12.73;100.00;101115.81;5036408;28;20040;-72
2023/07/26 01:46:21;;;;;;;6.78;5.47;;;;;;;12.78;100.00;101119.16;5048536;28;20025;-72
2023/07/26 01:48:46;;;;;;;6.03;5.28;;;;;;;12.81;100.00;101113.84;5045214;28;20385;-72
2023/07/26 01:51:11;;;;;;;5.80;5.00;;;;;;;12.84;100.00;101113.75;5045794;28;20033;-72
2023/07/26 01:53:37;;;;;;;7.50;6.25;;;;;;;12.86;100.00;101103.25;5042238;28;20205;-72
2023/07/26 01:56:02;;;;;;;6.88;6.05;;;;;;;12.82;100.00;101094.63;5046114;28;20604;-72
2023/07/26 01:58:28;;;;;;;6.97;5.80;;;;;;;12.96;100.00;101111.69;5045190;28;20031;-72
2023/07/26 02:00:54;;;;;;;5.78;4.93;;;;;;;12.95;100.00;101100.38;5045153;28;20094;-72
2023/07/26 02:03:19;;;;;;;5.65;5.00;;;;;;;12.92;100.00;101110.09;5046430;28;20461;-73
2023/07/26 02:05:46;;;;;;;9.85;4.60;;;;;;;12.84;100.00;101111.13;5045027;28;20474;-72
2023/07/26 02:08:12;;;;;;;7.45;4.70;;;;;;;12.81;100.00;101108.59;5045439;28;20029;-72
2023/07/26 02:10:40;;;;;;;5.07;4.53;;;;;;;12.78;100.00;101093.00;5042035;28;20094;-73
2023/07/26 02:13:05;;;;;;;7.03;4.32;;;;;;;12.75;100.00;101100.06;5045708;28;20055;-72
2023/07/26 02:15:31;;;;;;;6.60;4.55;;;;;;;12.69;100.00;101088.03;5043975;28;20053;-72
2023/07/26 02:17:57;;;;;;;6.93;4.78;;;;;;;12.64;100.00;101100.38;5045847;28;20032;-73
2023/07/26 02:20:22;;;;;;;8.27;4.25;;;;;;;12.59;100.00;101087.44;5043029;28;20381;-72
2023/07/26 02:22:50;;;;;;;5.15;4.30;;;;;;;12.57;100.00;101091.84;5045636;28;20029;-72
2023/07/26 02:25:15;;;;;;;6.88;4.45;;;;;;;12.51;100.00;101091.16;5044064;28;20055;-72
2023/07/26 02:27:41;;;;;;;5.82;3.80;;;;;;;12.50;100.00;101098.16;5041793;28;20442;-72
2023/07/26 02:30:07;;;;;;;4.18;3.65;;;;;;;12.44;100.00;101092.22;5041713;28;20108;-72
2023/07/26 02:32:32;;;;;;;3.67;3.20;;;;;;;12.39;100.00;101087.09;5043444;28;20034;-72
2023/07/26 02:34:58;;;;;;;4.95;3.92;;;;;;;12.35;100.00;101099.41;5044055;28;20033;-72
2023/07/26 02:37:23;;;;;;;4.22;3.60;;;;;;;12.36;100.00;101100.25;5042669;28;20029;-72
2023/07/26 02:39:49;;;;;;;4.25;3.33;;;;;;;12.26;100.00;101091.84;5040339;28;20033;-72
2023/07/26 02:42:14;;;;;;;5.57;3.88;;;;;;;12.27;100.00;101097.91;5035891;28;20064;-72
2023/07/26 02:44:40;;;;;;;5.38;3.75;;;;;;;12.29;100.00;101096.94;5033495;28;20079;-72
2023/07/26 02:47:05;;;;;;;4.32;3.70;;;;;;;12.28;100.00;101091.78;5044380;28;20025;-72
2023/07/26 02:49:31;;;;;;;3.90;3.50;;;;;;;12.30;100.00;101090.84;5041531;28;20511;-72
2023/07/26 02:51:57;;;;;;;3.92;3.47;;;;;;;12.31;100.00;101096.94;5042265;28;20099;-72
2023/07/26 02:54:22;;;;;;;3.88;3.30;;;;;;;12.32;100.00;101102.09;5040210;28;20132;-72
2023/07/26 02:56:47;;;;;;;4.63;3.33;;;;;;;12.33;100.00;101103.00;5049061;28;20064;-72
2023/07/26 02:59:13;;;;;;;5.18;3.50;;;;;;;12.32;100.00;101104.72;5041034;28;20120;-73
2023/07/26 03:01:38;;;;;;;9.88;4.80;;;;;;;12.17;100.00;101124.28;5042173;28;20112;-75
2023/07/26 03:04:03;;;;;;;7.07;4.57;;;;;;;11.89;100.00;101126.72;5041771;28;20534;-76
2023/07/26 03:06:29;;;;;;;8.40;5.47;;;;;;;11.80;100.00;101116.44;5044560;28;20040;-75
2023/07/26 03:08:54;;;;;;;10.07;5.85;;;;;;;11.62;100.00;101112.53;5041981;28;20064;-76
2023/07/26 03:11:19;;;;;;;9.23;6.00;;;;;;;11.73;100.00;101114.88;5039489;28;20037;-75
2023/07/26 03:13:45;;;;;;;9.88;7.07;;;;;;;11.72;100.00;101107.97;5039840;28;20492;-76
2023/07/26 03:16:10;;;;;;;9.98;7.03;;;;;;;11.77;100.00;101111.34;5041348;28;20029;-75
2023/07/26 03:18:35;;;;;;;9.32;7.63;;;;;;;11.79;100.00;101109.53;5043264;28;20037;-75
2023/07/26 03:21:01;;;;;;;10.00;7.20;;;;;;;11.78;100.00;101101.75;5045293;28;20028;-75
2023/07/26 03:23:26;;;;;;;10.88;8.07;;;;;;;11.71;100.00;101101.03;5042637;28;20029;-75
2023/07/26 03:25:51;;;;;;;11.35;7.43;;;;;;;11.57;100.00;101116.13;5039517;28;20064;-75
2023/07/26 03:28:17;;;;;;;8.55;6.70;;;;;;;11.49;100.00;101113.72;5044466;28;20029;-75
2023/07/26 03:30:42;;;;;;;9.80;7.55;;;;;;;11.46;100.00;101113.78;5033979;28;20059;-75
2023/07/26 03:33:08;;;;;;;10.20;6.82;;;;;;;11.28;100.00;101116.78;5005118;28;1085347;-75
2023/07/26 03:35:34;;;;;;;10.80;6.63;;;;;;;11.23;100.00;101116.91;5038724;28;20041;-75
2023/07/26 03:37:59;;;;;;;9.57;6.97;;;;;;;11.19;100.00;101128.31;5039329;28;20025;-75
2023/07/26 03:40:24;;;;;;;8.80;7.38;;;;;;;11.14;100.00;101122.31;5033409;28;20029;-75
2023/07/26 03:42:50;;;;;;;8.50;6.82;;;;;;;11.05;100.00;101135.56;5040628;28;20052;-74
2023/07/26 03:45:15;;;;;;;7.93;6.80;;;;;;;10.98;100.00;101129.59;5035280;28;20381;-75
2023/07/26 03:47:40;;;;;;;7.45;6.45;;;;;;;10.94;100.00;101134.03;5035601;28;20358;-75
2023/07/26 03:50:06;;;;;;;9.93;6.70;;;;;;;10.87;100.00;101122.00;5043750;28;20033;-75
2023/07/26 03:52:31;;;;;;;8.07;6.65;;;;;;;10.81;100.00;101127.34;5041925;28;20040;-75
2023/07/26 03:54:57;;;;;;;8.05;6.43;;;;;;;10.76;100.00;101123.97;5040067;28;20389;-75
2023/07/26 03:57:22;;;;;;;9.10;7.07;;;;;;;10.76;100.00;101122.22;5043606;28;20037;-75
2023/07/26 03:59:47;;;;;;;7.18;6.38;;;;;;;10.75;100.00;101124.84;5038483;28;20474;-75
2023/07/26 04:02:13;;;;;;;8.57;7.00;;;;;;;10.67;100.00;101125.00;5047312;28;20148;-74
2023/07/26 04:04:38;;;;;;;8.85;7.07;;;;;;;10.68;100.00;101125.88;5039657;28;20029;-74
2023/07/26 04:07:04;;;;;;;10.18;7.97;;;;;;;10.65;100.00;101126.78;5048694;28;20504;-74
2023/07/26 04:09:29;;;;;;;8.35;7.45;;;;;;;10.66;100.00;101123.31;5041823;28;20411;-74
2023/07/26 04:11:58;;;;;;;9.10;7.95;;;;;;;10.57;100.00;101109.59;5043619;28;20076;-74
2023/07/26 04:14:24;;;;;;;9.20;7.75;;;;;;;10.64;100.00;101117.25;5043082;28;20021;-74
2023/07/26 04:16:51;;;;;;;8.95;7.82;;;;;;;10.55;100.00;101107.84;5044425;28;20021;-74
2023/07/26 04:19:16;;;;;;;12.38;8.25;;;;;;;10.60;100.00;101122.56;5040053;28;20470;-74
2023/07/26 04:21:42;;;;;;;10.38;8.10;;;;;;;10.59;100.00;101126.03;5045881;28;20052;-74
2023/07/26 04:24:07;;;;;;;11.05;7.63;;;;;;;10.59;100.00;101120.81;5040174;28;20470;-74
2023/07/26 04:26:32;;;;;;;12.40;8.18;;;;;;;10.57;100.00;101118.25;5045946;28;20484;-74
2023/07/26 04:28:58;;;;;;;11.25;9.18;;;;;;;10.58;100.00;101129.53;5040363;28;20116;-74
2023/07/26 04:31:24;;;;;;;13.00;9.10;;;;;;;10.61;100.00;101127.72;5047161;28;20029;-74
2023/07/26 04:33:49;;;;;;;12.02;9.15;;;;;;;10.70;100.00;101126.72;5039589;28;20049;-74
2023/07/26 04:36:14;;;;;;;12.43;9.75;;;;;;;10.71;100.00;101125.81;5046787;28;20021;-74
2023/07/26 04:38:40;;;;;;;12.48;10.38;;;;;;;10.74;100.00;101129.22;5041360;28;20065;-74
2023/07/26 04:41:05;;;;;;;11.43;10.23;;;;;;;10.80;100.00;101120.41;5043863;28;20579;-74
2023/07/26 04:43:31;;;;;;;13.23;11.23;;;;;;;10.86;100.00;101125.50;5036565;28;20038;-74
2023/07/26 04:45:56;;;;;;;15.30;10.80;;;;;;;10.88;100.00;101115.88;5040479;28;20032;-74
2023/07/26 04:48:22;;;;;;;16.67;11.25;;;;;;;10.94;100.00;101113.16;5043110;28;20349;-74
2023/07/26 04:50:49;;;;;;;14.00;11.32;;;;;;;11.05;100.00;101125.97;5042639;28;20518;-74
2023/07/26 04:53:15;;;;;;;15.55;11.52;;;;;;;11.16;100.00;101131.00;5043229;28;20468;-74
2023/07/26 04:55:43;;;;;;;15.00;11.25;;;;;;;11.20;100.00;101122.19;5042692;28;20036;-74
2023/07/26 04:58:09;;;;;;;19.30;12.18;;;;;;;11.15;100.00;101110.97;5032088;28;20496;-74
2023/07/26 05:00:37;;;;;;;16.27;12.23;;;;;;;11.27;100.00;101126.38;5039580;28;20064;-74
2023/07/26 05:03:03;;;;;;;17.08;11.55;;;;;;;11.33;100.00;101121.03;5041276;28;20021;-74
2023/07/26 05:05:28;;;;;;;15.77;11.98;;;;;;;11.39;100.00;101115.69;5042881;28;20056;-74
2023/07/26 05:07:53;;;;;;;17.63;12.32;;;;;;;11.45;100.00;101122.53;5036120;28;20034;-74
2023/07/26 05:10:19;;;;;;;15.50;11.52;;;;;;;11.48;100.00;101119.84;5038401;28;20107;-74
2023/07/26 05:12:44;;;;;;;17.63;12.50;;;;;;;11.54;100.00;101124.91;5037402;28;20375;-74
2023/07/26 05:15:10;;;;;;;18.67;12.10;;;;;;;11.50;100.00;101107.59;5033275;28;20061;-74
2023/07/26 05:17:35;;;;;;;15.25;12.30;;;;;;;11.58;100.00;101118.75;5038754;28;20026;-74
2023/07/26 05:20:00;;;;;;;19.55;12.52;;;;;;;11.63;100.00;101109.03;5036116;28;20033;-74
2023/07/26 05:22:26;;;;;;;16.25;12.23;;;;;;;11.72;100.00;101123.63;5041071;28;20029;-74
2023/07/26 05:24:52;;;;;;;17.55;12.30;;;;;;;11.77;100.00;101121.78;5042894;28;20029;-74
2023/07/26 05:27:17;;;;;;;17.58;12.50;;;;;;;11.78;100.00;101125.25;5041682;28;20124;-74
2023/07/26 05:29:42;;;;;;;22.48;13.00;;;;;;;11.84;100.00;101119.88;5038779;28;20072;-74
2023/07/26 05:32:08;;;;;;;17.05;12.90;;;;;;;11.89;100.00;101116.25;5043520;28;20366;-74
2023/07/26 05:34:35;;;;;;;14.63;12.50;;;;;;;12.02;100.00;101123.81;5044457;28;20041;-74
2023/07/26 05:37:01;;;;;;;18.73;12.90;;;;;;;12.13;100.00;101122.66;5048372;28;20026;-74
2023/07/26 05:39:26;;;;;;;18.38;12.60;;;;;;;12.27;100.00;101119.69;5043347;28;20037;-74
2023/07/26 05:41:51;;;;;;;17.75;12.85;;;;;;;12.34;100.00;101121.22;5050998;28;20072;-74
2023/07/26 05:44:17;;;;;;;17.92;12.70;;;;;;;12.45;100.00;101117.47;5039330;28;20461;-74
2023/07/26 05:46:42;;;;;;;17.63;13.18;;;;;;;12.52;100.00;101125.09;5050815;28;20037;-74
2023/07/26 05:49:09;;;;;;;15.82;12.15;;;;;;;12.54;100.00;101125.06;5042739;28;20037;-74
2023/07/26 05:51:34;;;;;;;15.13;11.80;;;;;;;12.57;100.00;101132.84;5046281;28;20129;-74
2023/07/26 05:54:00;;;;;;;19.88;12.90;;;;;;;12.62;100.00;101123.09;5048196;28;20030;-73
2023/07/26 05:56:25;;;;;;;23.95;13.20;;;;;;;12.68;100.00;101117.69;5048290;28;20044;-74
2023/07/26 05:58:50;;;;;;;19.67;12.38;;;;;;;12.68;100.00;101116.84;5044772;28;20044;-74
2023/07/26 06:01:16;;;;;;;18.35;11.90;;;;;;;12.66;100.00;101111.66;5046982;28;20031;-74
2023/07/26 06:03:43;;;;;;;20.40;12.85;;;;;;;12.73;100.00;101118.44;5045522;28;20079;-74
2023/07/26 06:06:08;;;;;;;19.77;13.20;;;;;;;12.90;100.00;101120.56;5042937;28;20099;-74
2023/07/26 06:08:33;;;;;;;16.20;13.30;;;;;;;13.14;100.00;101129.47;5041773;28;20461;-74
2023/07/26 06:10:59;;;;;;;19.35;14.20;;;;;;;13.41;100.00;101133.06;5044974;28;20112;-74
2023/07/26 06:13:24;;;;;;;21.08;13.20;;;;;;;13.59;100.00;101134.25;5039151;28;20029;-74
2023/07/26 06:15:49;;;;;;;21.45;14.15;;;;;;;13.66;100.00;101137.53;5048359;28;20017;-74
2023/07/26 06:18:15;;;;;;;22.40;13.25;;;;;;;13.69;100.00;101151.38;5043652;28;20465;-74
2023/07/26 06:20:40;;;;;;;19.27;13.57;;;;;;;13.74;100.00;101146.88;5045758;28;20051;-73
2023/07/26 06:23:06;;;;;;;17.48;12.63;;;;;;;13.83;100.00;101150.94;5033703;28;20029;-74
2023/07/26 06:25:32;;;;;;;20.60;13.32;;;;;;;13.96;100.00;101161.88;5041400;28;20040;-74
2023/07/26 06:27:58;;;;;;;21.75;14.18;;;;;;;14.08;100.00;101164.13;5042297;28;20029;-74
2023/07/26 06:30:23;;;;;;;20.85;13.73;;;;;;;14.21;100.00;101167.19;5035130;28;20132;-73
2023/07/26 06:32:49;;;;;;;15.85;12.27;;;;;;;14.25;100.00;101177.53;5036724;28;20503;-74
2023/07/26 06:35:15;;;;;;;20.85;12.90;;;;;;;14.34;100.00;101183.38;5041477;28;20049;-74
2023/07/26 06:37:40;;;;;;;19.00;13.52;;;;;;;14.35;100.00;101187.72;5042578;28;20548;-74
2023/07/26 06:40:06;;;;;;;19.73;13.35;;;;;;;14.35;100.00;101179.84;5045020;28;20507;-74
2023/07/26 06:42:32;;;;;;;16.08;13.55;;;;;;;14.22;100.00;101185.53;5040688;28;20468;-74
2023/07/26 06:44:58;;;;;;;19.33;13.65;;;;;;;14.11;100.00;101185.00;5041289;28;20025;-74
2023/07/26 06:47:23;;;;;;;19.95;13.48;;;;;;;13.91;100.00;101187.41;5040201;28;20040;-74
2023/07/26 06:49:49;;;;;;;20.25;14.10;;;;;;;13.89;100.00;101189.22;5038018;28;20036;-74
2023/07/26 06:52:15;;;;;;;20.63;14.70;;;;;;;13.84;100.00;101196.38;5033387;28;20128;-74
2023/07/26 06:54:40;;;;;;;20.15;15.63;;;;;;;13.78;100.00;101193.03;5033509;28;20033;-74
2023/07/26 06:57:06;;;;;;;20.83;15.27;;;;;;;13.79;100.00;101197.34;5030765;28;20017;-74
2023/07/26 06:59:31;;;;;;;22.30;15.05;;;;;;;13.78;100.00;101195.66;5032352;28;20487;-72
2023/07/26 07:01:57;;;;;;;26.13;16.90;;;;;;;13.72;100.00;101198.47;5030250;28;20041;-73
2023/07/26 07:04:22;;;;;;;23.85;16.58;;;;;;;13.72;100.00;101190.59;5044085;28;20049;-73
2023/07/26 07:06:47;;;;;;;26.83;16.15;;;;;;;13.67;100.00;101189.00;5040515;28;20026;-74
2023/07/26 07:09:13;;;;;;;23.73;16.70;;;;;;;13.70;100.00;101196.78;5047068;28;20040;-75
2023/07/26 07:11:39;;;;;;;24.45;17.40;;;;;;;13.67;100.00;101197.75;5041382;28;20033;-74
2023/07/26 07:14:04;;;;;;;24.90;16.10;;;;;;;13.61;100.00;101205.81;5041875;28;20420;-75
2023/07/26 07:16:30;;;;;;;24.73;17.27;;;;;;;13.68;100.00;101209.09;5047170;28;20037;-75
2023/07/26 07:18:55;;;;;;;28.27;17.63;;;;;;;13.67;100.00;101212.59;5041309;28;20492;-74
2023/07/26 07:21:21;;;;;;;26.10;17.42;;;;;;;13.68;100.00;101212.56;5048146;28;20029;-74
2023/07/26 07:23:47;;;;;;;30.35;17.55;;;;;;;13.69;100.00;101219.50;5040726;28;20025;-74
2023/07/26 07:26:12;;;;;;;22.90;16.95;;;;;;;13.73;100.00;101225.50;5048968;28;20358;-74
2023/07/26 07:28:38;;;;;;;25.75;17.27;;;;;;;13.77;100.00;101219.28;5040229;28;20025;-74
2023/07/26 07:31:03;;;;;;;24.45;15.35;;;;;;;13.86;100.00;101226.84;5047039;28;20138;-74
2023/07/26 07:33:29;;;;;;;26.17;15.88;;;;;;;13.97;100.00;101232.63;5042644;28;20052;-74
2023/07/26 07:35:55;;;;;;;23.83;16.40;;;;;;;14.03;100.00;101245.56;5044391;28;20025;-74
2023/07/26 07:38:20;;;;;;;23.45;16.27;;;;;;;14.08;100.00;101232.28;5044481;28;20029;-74
2023/07/26 07:40:47;;;;;;;20.65;14.60;;;;;;;13.97;100.00;101237.88;5042899;28;21311;-74
2023/07/26 07:43:12;;;;;;;22.73;15.98;;;;;;;13.91;100.00;101243.31;5041308;28;20105;-74
2023/07/26 07:45:41;;;;;;;24.08;16.05;;;;;;;13.92;100.00;101244.16;5043529;28;20445;-74
2023/07/26 07:48:06;;;;;;;24.75;16.40;;;;;;;13.96;100.00;101244.03;5043708;28;20412;-74
2023/07/26 07:50:32;;;;;;;23.55;16.35;;;;;;;14.20;100.00;101245.00;5043077;28;20040;-74
2023/07/26 07:52:57;;;;;;;24.65;16.65;;;;;;;14.41;100.00;101237.34;5043279;28;20029;-74
2023/07/26 07:55:23;;;;;;;24.08;16.40;;;;;;;14.44;100.00;101234.63;5043456;28;20083;-74
2023/07/26 07:57:48;;;;;;;21.88;15.55;;;;;;;14.42;100.00;101232.06;5040665;28;20018;-73
2023/07/26 08:00:14;;;;;;;21.15;15.55;;;;;;;14.51;100.00;101236.16;5044163;28;20468;-74
2023/07/26 08:02:39;;;;;;;21.65;15.20;;;;;;;14.52;100.00;101224.78;5041874;28;20025;-73
2023/07/26 08:05:04;;;;;;;23.48;16.13;;;;;;;14.54;100.00;101235.19;5041915;28;20030;-73
2023/07/26 08:07:30;;;;;;;20.92;15.85;;;;;;;14.46;100.00;101235.44;5043501;28;20428;-73
2023/07/26 08:09:55;;;;;;;23.27;15.60;;;;;;;14.57;100.00;101229.84;5040730;28;20045;-74
2023/07/26 08:12:20;;;;;;;19.48;14.85;;;;;;;14.66;100.00;101222.53;5035451;28;20033;-73
2023/07/26 08:14:52;;;;;;;19.58;14.10;;;;;;;14.64;100.00;101216.47;5043460;28;20024;-73
2023/07/26 08:17:17;;;;;;;18.80;14.52;;;;;;;14.66;100.00;101212.03;5041679;28;20025;-73
2023/07/26 08:19:44;;;;;;;22.65;15.35;;;;;;;14.86;100.00;101226.22;5042734;28;20106;-73
2023/07/26 08:22:09;;;;;;;20.85;14.93;;;;;;;14.86;100.00;101215.72;5042855;28;20029;-73
2023/07/26 08:24:34;;;;;;;19.45;14.10;;;;;;;14.93;100.00;101219.84;5043412;28;20020;-73
2023/07/26 08:27:00;;;;;;;21.75;14.13;;;;;;;15.21;100.00;101219.72;5044059;28;20049;-73
2023/07/26 08:29:25;;;;;;;18.45;13.25;;;;;;;15.46;100.00;101219.66;5041809;28;20533;-73
2023/07/26 08:31:50;;;;;;;22.83;14.32;;;;;;;15.51;100.00;101215.09;5045788;28;20040;-73
2023/07/26 08:34:16;;;;;;;18.60;14.38;;;;;;;15.77;100.00;101219.38;5040131;28;20500;-73
2023/07/26 08:36:41;;;;;;;15.18;12.18;;;;;;;15.72;100.00;101223.09;5047891;28;20500;-73
2023/07/26 08:39:06;;;;;;;16.83;13.25;;;;;;;15.74;100.00;101226.53;5039997;28;20080;-72
2023/07/26 08:41:33;;;;;;;18.92;14.43;;;;;;;15.84;100.00;101218.22;5048104;28;20487;-73
2023/07/26 08:44:01;;;;;;;18.58;13.20;;;;;;;15.81;100.00;101218.31;5038620;28;20104;-73
2023/07/26 08:46:27;;;;;;;15.52;13.20;;;;;;;15.74;100.00;101216.00;5047043;28;20057;-72
2023/07/26 08:48:53;;;;;;;19.30;12.75;;;;;;;15.93;100.00;101222.25;5040750;28;20072;-73
2023/07/26 08:51:20;;;;;;;16.42;11.43;;;;;;;16.39;100.00;101220.38;5040531;28;20108;-73
2023/07/26 08:53:47;;;;;;;15.38;11.20;;;;;;;16.87;100.00;101221.84;5041585;28;20029;-73
2023/07/26 08:56:14;;;;;;;14.00;10.50;;;;;;;16.86;100.00;101220.16;5040190;28;20033;-72
2023/07/26 08:58:40;;;;;;;13.15;10.10;;;;;;;16.65;100.00;101216.66;5044898;28;20104;-73
2023/07/26 09:01:06;;;;;;;13.43;9.95;;;;;;;16.70;100.00;101213.81;5039616;28;20108;-73
2023/07/26 09:03:31;;;;;;;11.90;9.60;;;;;;;16.76;100.00;101197.78;5043589;28;20025;-73
2023/07/26 09:06:15;;;;;;;10.48;8.90;;;;;;;17.05;100.00;101210.53;5044062;28;20453;-73
2023/07/26 09:08:42;;;;;;;12.38;8.75;;;;;;;17.82;100.00;101207.03;5047231;28;20029;-73
2023/07/26 09:11:26;;;;;;;9.85;7.35;;;;;;;18.49;100.00;101200.19;5045257;28;20025;-73
2023/07/26 09:13:59;;;;;;;10.70;6.93;;;;;;;18.58;100.00;101201.53;5043348;28;20029;-72
2023/07/26 09:16:31;;;;;;;11.85;6.72;;;;;;;18.30;100.00;101194.13;5036257;28;20029;-73
2023/07/26 09:19:04;;;;;;;6.97;5.47;;;;;;;17.92;100.00;101208.28;5043199;28;20029;-72
2023/07/26 09:21:31;;;;;;;8.30;5.80;;;;;;;17.44;100.00;101201.75;5034603;28;20033;-72
2023/07/26 09:23:58;;;;;;;7.32;5.18;;;;;;;17.46;100.00;101210.44;5043728;28;20101;-72
2023/07/26 09:26:40;;;;;;;9.63;5.82;;;;;;;17.49;100.00;101205.03;5043308;28;20484;-72
2023/07/26 09:29:13;;;;;;;7.43;5.57;;;;;;;17.97;100.00;101203.63;5038210;28;20402;-73
2023/07/26 09:31:42;;;;;;;6.25;5.10;;;;;;;18.34;100.00;101208.88;5035741;28;20033;-72
2023/07/26 09:34:11;;;;;;;6.15;4.57;;;;;;;18.54;100.00;101218.44;5042841;28;20517;-73
2023/07/26 09:36:51;;;;;;;7.38;5.75;;;;;;;18.40;100.00;101214.72;5034735;28;20022;-72
2023/07/26 09:39:19;;;;;;;7.63;4.72;;;;;;;17.90;100.00;101218.06;5041226;28;20427;-71
2023/07/26 09:41:47;;;;;;;4.45;3.58;;;;;;;17.75;100.00;101224.88;5046127;28;20377;-71
2023/07/26 09:44:17;;;;;;;4.68;3.45;;;;;;;17.41;100.00;101222.97;5040820;28;20080;-71
2023/07/26 09:47:00;;;;;;;3.75;2.85;;;;;;;17.12;100.00;101224.28;5051064;28;20860;-71
2023/07/26 09:49:29;;;;;;;3.90;2.38;;;;;;;17.35;100.00;101222.38;5041936;28;20053;-73
2023/07/26 09:51:59;;;;;;;5.03;2.95;;;;;;;17.60;100.00;101217.69;5042968;28;20390;-72
2023/07/26 09:54:30;;;;;;;4.78;3.22;;;;;;;18.22;100.00;101215.66;5035246;28;20022;-72
2023/07/26 09:56:57;;;;;;;5.53;3.10;;;;;;;18.82;96.45;101220.56;5044699;28;20060;-72
2023/07/26 09:59:28;;;;;;;3.83;3.00;;;;;;;18.90;94.86;101213.94;5048826;28;20507;-72
2023/07/26 10:01:54;;;;;;;4.50;3.20;;;;;;;19.17;100.00;101224.00;5042158;28;20030;-72
2023/07/26 10:04:35;;;;;;;3.67;2.58;;;;;;;19.47;88.45;101210.06;5040812;28;20056;-72
2023/07/26 10:07:04;;;;;;;4.13;3.03;;;;;;;19.31;82.41;101218.81;5044102;28;20026;-72
2023/07/26 10:09:32;;;;;;;4.97;2.78;;;;;;;19.12;86.53;101218.94;5043591;28;20048;-72
2023/07/26 10:12:01;;;;;;;4.03;3.33;;;;;;;19.02;86.85;101209.78;5034767;28;20025;-72
2023/07/26 10:14:31;;;;;;;6.93;3.78;;;;;;;19.34;94.43;101218.66;5039588;28;20052;-70
2023/07/26 10:16:58;;;;;;;4.95;2.65;;;;;;;19.74;90.41;101199.75;5045383;28;20029;-70
2023/07/26 10:19:28;;;;;;;3.92;3.17;;;;;;;19.86;90.75;101201.72;5036586;28;20021;-72
2023/07/26 10:21:54;;;;;;;5.28;3.35;;;;;;;19.50;87.96;101197.53;5039991;28;20026;-71
2023/07/26 10:24:22;;;;;;;4.90;3.70;;;;;;;19.47;91.76;101194.19;5031293;28;20029;-71
2023/07/26 10:26:49;;;;;;;6.35;3.83;;;;;;;19.91;94.88;101201.44;5046013;28;20055;-71
2023/07/26 10:29:15;;;;;;;7.03;4.25;;;;;;;20.45;92.21;101201.84;5035898;28;20030;-71
2023/07/26 10:31:42;;;;;;;5.40;3.63;;;;;;;20.39;85.75;101199.56;5041579;28;20033;-71
2023/07/26 10:34:09;;;;;;;6.53;4.05;;;;;;;20.29;84.41;101202.75;5037236;28;20034;-71
2023/07/26 10:36:36;;;;;;;4.90;3.78;;;;;;;20.43;82.22;101206.38;5041707;28;20400;-71
2023/07/26 10:39:11;;;;;;;4.88;3.80;;;;;;;20.63;74.75;101194.63;5039335;28;20068;-71
2023/07/26 10:41:46;;;;;;;6.50;3.85;;;;;;;20.53;80.68;101194.31;5048970;28;20357;-71
2023/07/26 10:44:12;;;;;;;8.50;3.67;;;;;;;20.45;82.56;101185.97;5036428;28;20061;-71
2023/07/26 10:47:01;;;;;;;5.45;4.05;;;;;;;20.21;85.01;101198.81;5042345;28;20065;-71
2023/07/26 10:49:28;;;;;;;5.43;3.80;;;;;;;19.76;89.31;101198.75;5040075;28;20025;-71
2023/07/26 10:51:59;;;;;;;5.05;3.70;;;;;;;19.40;86.38;101191.88;5044160;28;20417;-71
2023/07/26 10:54:33;;;;;;;6.75;4.22;;;;;;;19.59;86.35;101199.66;5034365;28;20021;-71
2023/07/26 10:57:15;;;;;;;7.18;4.72;;;;;;;19.91;86.22;101189.06;5037204;28;20072;-71
2023/07/26 10:59:57;;;;;;;6.50;4.30;;;;;;;20.29;91.59;101191.31;5032011;28;20519;-71
2023/07/26 11:02:44;;;;;;;6.13;4.03;;;;;;;20.35;86.38;101190.94;5032033;28;20041;-71
2023/07/26 11:05:21;;;;;;;4.82;3.40;;;;;;;20.39;79.28;101183.69;5044619;28;20039;-71
2023/07/26 11:08:02;;;;;;;5.93;3.40;;;;;;;20.62;85.95;101190.28;5042470;28;20029;-71
2023/07/26 11:10:30;;;;;;;6.15;4.05;;;;;;;20.75;74.73;101193.91;5035378;28;20024;-71